Time;durP1;ratioP1;P1;durP2;ratioP2;P2;SDS_P1;SDS_P2;PMS_P1;PMS_P2;Temp;Humidity;BMP_temperature;BMP_pressure;BME280_temperature;BME280_humidity;BME280_pressure;Samples;Min_cycle;Max_cycle;Signal;HPM_P1;HPM_P2
2021/06/26 00:06:51;;;;;;;15.45;3.88;;;;;;;;;;5127674;27;20440;-65
2021/06/26 00:09:17;;;;;;;12.93;4.10;;;;;;;;;;5104002;28;20023;-69
2021/06/26 00:11:43;;;;;;;11.77;3.85;;;;;;;;;;5102758;28;20028;-68
2021/06/26 00:14:10;;;;;;;14.85;3.83;;;;;;;;;;5107225;28;20477;-67
2021/06/26 00:16:36;;;;;;;10.57;3.33;;;;;;;;;;5106520;28;20123;-68
2021/06/26 00:19:03;;;;;;;10.55;3.97;;;;;;;;;;5108203;28;20038;-68
2021/06/26 00:21:29;;;;;;;12.65;3.78;;;;;;;;;;5107320;28;20470;-68
2021/06/26 00:23:55;;;;;;;11.43;3.72;;;;;;;;;;5108075;28;20027;-67
2021/06/26 00:26:21;;;;;;;12.52;3.80;;;;;;;;;;5108294;28;20077;-68
2021/06/26 00:28:47;;;;;;;13.25;3.63;;;;;;;;;;5107828;28;20050;-67
2021/06/26 00:31:13;;;;;;;8.50;3.55;;;;;;;;;;5107164;28;20031;-69
2021/06/26 00:33:40;;;;;;;10.40;3.58;;;;;;;;;;5099298;28;20027;-68
2021/06/26 00:36:06;;;;;;;11.95;3.90;;;;;;;;;;5107727;28;20044;-68
2021/06/26 00:38:32;;;;;;;11.18;3.60;;;;;;;;;;5113011;28;20107;-68
2021/06/26 00:40:58;;;;;;;15.68;3.83;;;;;;;;;;5110095;28;20111;-68
2021/06/26 00:43:24;;;;;;;13.30;3.60;;;;;;;;;;5106522;28;20024;-68
2021/06/26 00:45:50;;;;;;;14.20;3.50;;;;;;;;;;5101810;28;20137;-69
2021/06/26 00:48:17;;;;;;;9.90;4.15;;;;;;;;;;5107726;28;20036;-67
2021/06/26 00:50:43;;;;;;;9.82;3.70;;;;;;;;;;5107730;28;20088;-68
2021/06/26 00:53:09;;;;;;;8.65;3.28;;;;;;;;;;5102816;28;20032;-66
2021/06/26 00:55:35;;;;;;;14.43;3.63;;;;;;;;;;5107935;28;20496;-68
2021/06/26 00:58:02;;;;;;;16.35;3.70;;;;;;;;;;5104590;28;20032;-68
2021/06/26 01:00:29;;;;;;;8.88;3.67;;;;;;;;;;5107530;28;20054;-66
2021/06/26 01:02:55;;;;;;;10.15;3.38;;;;;;;;;;5107138;28;20044;-68
2021/06/26 01:05:21;;;;;;;11.48;3.78;;;;;;;;;;5106755;28;20047;-66
2021/06/26 01:07:47;;;;;;;11.82;3.70;;;;;;;;;;5092232;28;20024;-68
2021/06/26 01:10:14;;;;;;;9.82;3.22;;;;;;;;;;5087833;28;20056;-68
2021/06/26 01:12:40;;;;;;;10.23;3.35;;;;;;;;;;5090864;28;20047;-69
2021/06/26 01:15:07;;;;;;;12.60;3.38;;;;;;;;;;5094203;28;20036;-69
2021/06/26 01:17:33;;;;;;;7.60;3.28;;;;;;;;;;5090035;28;20458;-69
2021/06/26 01:20:00;;;;;;;10.48;3.28;;;;;;;;;;5087693;28;20030;-67
2021/06/26 01:22:28;;;;;;;8.85;3.70;;;;;;;;;;5090200;28;20074;-68
2021/06/26 01:24:54;;;;;;;10.85;3.47;;;;;;;;;;5093376;28;20021;-67
2021/06/26 01:27:20;;;;;;;10.48;3.92;;;;;;;;;;5092313;28;20028;-68
2021/06/26 01:29:48;;;;;;;11.23;3.45;;;;;;;;;;5089350;28;20563;-69
2021/06/26 01:32:14;;;;;;;13.27;3.53;;;;;;;;;;5091239;28;20119;-69
2021/06/26 01:34:40;;;;;;;10.90;3.53;;;;;;;;;;5089891;28;20089;-68
2021/06/26 01:37:06;;;;;;;10.00;3.17;;;;;;;;;;5091595;28;20036;-68
2021/06/26 01:39:32;;;;;;;6.90;3.30;;;;;;;;;;5093214;28;20024;-68
2021/06/26 01:41:58;;;;;;;10.05;3.53;;;;;;;;;;5093396;28;20024;-68
2021/06/26 01:44:24;;;;;;;9.82;3.35;;;;;;;;;;5092849;28;20030;-66
2021/06/26 01:46:51;;;;;;;9.98;3.28;;;;;;;;;;5095439;28;20024;-68
2021/06/26 01:49:18;;;;;;;10.32;3.30;;;;;;;;;;5089856;28;20020;-68
2021/06/26 01:51:45;;;;;;;10.13;3.35;;;;;;;;;;5092102;28;20469;-68
2021/06/26 01:54:12;;;;;;;10.90;3.63;;;;;;;;;;5091920;28;20447;-66
2021/06/26 01:56:38;;;;;;;8.77;3.47;;;;;;;;;;5092698;28;20024;-68
2021/06/26 01:59:05;;;;;;;10.60;3.47;;;;;;;;;;5090657;28;20107;-68
2021/06/26 02:01:32;;;;;;;13.07;3.78;;;;;;;;;;5091407;28;20036;-67
2021/06/26 02:03:58;;;;;;;8.60;3.47;;;;;;;;;;5094528;28;20012;-68
2021/06/26 02:06:27;;;;;;;9.65;3.40;;;;;;;;;;5092597;28;20127;-69
2021/06/26 02:08:55;;;;;;;12.73;3.40;;;;;;;;;;5092110;28;20028;-67
2021/06/26 02:11:21;;;;;;;10.75;3.53;;;;;;;;;;5092687;28;20052;-69
2021/06/26 02:13:47;;;;;;;7.40;3.05;;;;;;;;;;5092645;28;20089;-68
2021/06/26 02:16:13;;;;;;;9.00;2.97;;;;;;;;;;5092288;28;20107;-68
2021/06/26 02:18:39;;;;;;;17.55;4.00;;;;;;;;;;5091984;28;20069;-69
2021/06/26 02:21:06;;;;;;;13.48;3.70;;;;;;;;;;5092633;28;20032;-69
2021/06/26 02:23:33;;;;;;;8.73;3.40;;;;;;;;;;5092844;28;20020;-69
2021/06/26 02:25:59;;;;;;;9.68;3.28;;;;;;;;;;5089945;28;20042;-67
2021/06/26 02:28:27;;;;;;;11.57;3.80;;;;;;;;;;5092093;28;20020;-67
2021/06/26 02:30:53;;;;;;;14.75;4.15;;;;;;;;;;5087600;28;20106;-68
2021/06/26 02:33:19;;;;;;;12.50;3.47;;;;;;;;;;5090550;28;20028;-68
2021/06/26 02:35:45;;;;;;;9.75;3.40;;;;;;;;;;5092063;28;20043;-68
2021/06/26 02:38:11;;;;;;;9.52;3.42;;;;;;;;;;5091091;28;20521;-69
2021/06/26 02:40:37;;;;;;;7.53;3.58;;;;;;;;;;5091392;28;20024;-69
2021/06/26 02:43:03;;;;;;;10.50;3.50;;;;;;;;;;5089816;28;20111;-68
2021/06/26 02:45:30;;;;;;;12.85;3.60;;;;;;;;;;5105097;28;20036;-68
2021/06/26 02:47:56;;;;;;;12.35;3.53;;;;;;;;;;5090912;28;20028;-69
2021/06/26 02:50:22;;;;;;;11.88;3.45;;;;;;;;;;5091893;28;20032;-68
2021/06/26 02:52:48;;;;;;;9.68;3.00;;;;;;;;;;5090290;28;20022;-69
2021/06/26 02:55:16;;;;;;;9.98;3.30;;;;;;;;;;5091946;28;20024;-69
2021/06/26 02:57:42;;;;;;;10.00;2.90;;;;;;;;;;5090067;28;20036;-71
2021/06/26 03:00:09;;;;;;;12.50;3.42;;;;;;;;;;5091398;28;20023;-64
2021/06/26 03:02:35;;;;;;;8.60;2.95;;;;;;;;;;5084945;28;20055;-68
2021/06/26 03:05:01;;;;;;;9.93;3.13;;;;;;;;;;5090783;28;20172;-69
2021/06/26 03:07:27;;;;;;;6.63;3.00;;;;;;;;;;5091403;28;20412;-68
2021/06/26 03:09:53;;;;;;;6.72;2.80;;;;;;;;;;5089203;28;20016;-69
2021/06/26 03:12:19;;;;;;;9.55;3.15;;;;;;;;;;5089371;28;20052;-69
2021/06/26 03:14:45;;;;;;;10.57;2.97;;;;;;;;;;5091350;28;20028;-69
2021/06/26 03:17:12;;;;;;;9.20;2.90;;;;;;;;;;5091588;28;20028;-69
2021/06/26 03:19:40;;;;;;;7.15;2.80;;;;;;;;;;5090120;28;20039;-68
2021/06/26 03:22:07;;;;;;;8.20;2.72;;;;;;;;;;5091292;28;20501;-69
2021/06/26 03:24:35;;;;;;;8.25;2.75;;;;;;;;;;5090714;28;20107;-69
2021/06/26 03:27:03;;;;;;;8.35;2.97;;;;;;;;;;5090938;28;20039;-69
2021/06/26 03:29:29;;;;;;;7.68;2.97;;;;;;;;;;5090090;28;20621;-68
2021/06/26 03:31:55;;;;;;;7.35;2.92;;;;;;;;;;5091178;28;20107;-68
2021/06/26 03:34:21;;;;;;;9.70;3.03;;;;;;;;;;5089687;28;20032;-68
2021/06/26 03:36:47;;;;;;;7.20;2.80;;;;;;;;;;5088761;28;20331;-67
2021/06/26 03:39:13;;;;;;;6.63;2.50;;;;;;;;;;5091067;28;20099;-69
2021/06/26 03:41:39;;;;;;;9.52;2.88;;;;;;;;;;5087423;28;20036;-69
2021/06/26 03:44:05;;;;;;;6.85;2.85;;;;;;;;;;5091153;28;20095;-67
2021/06/26 03:46:32;;;;;;;11.82;3.05;;;;;;;;;;5089349;28;20377;-70
2021/06/26 03:48:58;;;;;;;8.30;3.28;;;;;;;;;;5090546;28;20103;-69
2021/06/26 03:51:24;;;;;;;14.55;4.10;;;;;;;;;;5090668;28;20472;-69
2021/06/26 03:53:53;;;;;;;9.82;3.60;;;;;;;;;;5091795;28;20028;-70
2021/06/26 03:56:19;;;;;;;11.25;3.58;;;;;;;;;;5089841;28;20124;-69
2021/06/26 03:58:45;;;;;;;16.45;4.45;;;;;;;;;;5090228;28;20421;-68
2021/06/26 04:01:11;;;;;;;15.32;3.97;;;;;;;;;;5087477;28;20024;-68
2021/06/26 04:03:37;;;;;;;12.10;3.50;;;;;;;;;;5085314;28;20128;-67
2021/06/26 04:06:03;;;;;;;15.70;4.57;;;;;;;;;;5085182;28;20057;-68
2021/06/26 04:08:29;;;;;;;11.68;3.90;;;;;;;;;;5088418;28;20028;-68
2021/06/26 04:10:55;;;;;;;14.23;3.78;;;;;;;;;;5089751;28;20035;-69
2021/06/26 04:13:21;;;;;;;12.18;3.90;;;;;;;;;;5090779;28;20059;-67
2021/06/26 04:15:47;;;;;;;13.52;4.07;;;;;;;;;;5090012;28;20032;-67
2021/06/26 04:18:14;;;;;;;12.55;4.20;;;;;;;;;;5086548;28;20031;-66
2021/06/26 04:20:40;;;;;;;19.08;4.75;;;;;;;;;;5092667;28;20067;-67
2021/06/26 04:23:06;;;;;;;12.88;4.28;;;;;;;;;;5087263;28;20039;-68
2021/06/26 04:25:32;;;;;;;14.13;4.20;;;;;;;;;;5090947;28;20031;-69
2021/06/26 04:28:07;;;;;;;12.50;4.40;;;;;;;;;;5088344;28;20016;-69
2021/06/26 04:30:36;;;;;;;12.18;4.10;;;;;;;;;;5084222;28;20058;-77
2021/06/26 04:33:02;;;;;;;11.30;3.80;;;;;;;;;;5088902;28;20043;-64
2021/06/26 04:35:28;;;;;;;11.15;4.07;;;;;;;;;;5086486;28;20044;-68
2021/06/26 04:37:55;;;;;;;14.65;4.47;;;;;;;;;;5087335;28;20028;-65
2021/06/26 04:40:21;;;;;;;10.27;4.38;;;;;;;;;;5073859;28;20032;-64
2021/06/26 04:42:47;;;;;;;9.98;4.13;;;;;;;;;;5080809;28;20639;-69
2021/06/26 04:45:14;;;;;;;11.25;4.35;;;;;;;;;;5084350;28;20017;-68
2021/06/26 04:47:40;;;;;;;11.10;4.55;;;;;;;;;;5081073;28;20035;-68
2021/06/26 04:50:07;;;;;;;12.82;4.30;;;;;;;;;;5080666;28;20388;-74
2021/06/26 04:52:34;;;;;;;9.88;4.35;;;;;;;;;;5083404;28;20024;-73
2021/06/26 04:55:02;;;;;;;12.57;4.07;;;;;;;;;;5088023;28;20523;-71
2021/06/26 04:57:28;;;;;;;10.23;4.20;;;;;;;;;;5091181;28;20040;-87
2021/06/26 04:59:54;;;;;;;7.32;3.90;;;;;;;;;;5089562;28;20054;-77
2021/06/26 05:02:20;;;;;;;9.05;4.18;;;;;;;;;;5090959;28;20051;-73
2021/06/26 05:04:49;;;;;;;12.65;4.18;;;;;;;;;;5087004;28;20405;-79
2021/06/26 05:07:15;;;;;;;11.20;4.38;;;;;;;;;;5092105;28;20402;-82
2021/06/26 05:09:41;;;;;;;9.65;4.50;;;;;;;;;;5093782;28;20416;-81
2021/06/26 05:12:07;;;;;;;12.02;4.20;;;;;;;;;;5088602;28;20020;-67
2021/06/26 05:14:33;;;;;;;14.88;4.80;;;;;;;;;;5092695;28;20116;-74
2021/06/26 05:16:59;;;;;;;13.93;4.47;;;;;;;;;;5093735;28;20024;-73
2021/06/26 05:19:25;;;;;;;11.95;4.55;;;;;;;;;;5093011;28;20028;-66
2021/06/26 05:21:51;;;;;;;8.05;4.03;;;;;;;;;;5092389;28;20016;-68
2021/06/26 05:24:17;;;;;;;10.38;4.22;;;;;;;;;;5093305;28;20034;-68
2021/06/26 05:26:48;;;;;;;14.07;4.32;;;;;;;;;;5093818;28;20016;-72
2021/06/26 05:29:14;;;;;;;11.70;4.10;;;;;;;;;;5093807;28;20011;-75
2021/06/26 05:31:40;;;;;;;8.27;3.90;;;;;;;;;;5092424;28;20191;-68
2021/06/26 05:34:06;;;;;;;10.68;4.05;;;;;;;;;;5093214;28;20409;-71
2021/06/26 05:36:32;;;;;;;9.77;4.07;;;;;;;;;;5092919;28;20059;-75
2021/06/26 05:39:00;;;;;;;8.77;4.18;;;;;;;;;;5093144;28;20040;-76
2021/06/26 05:41:26;;;;;;;11.25;4.40;;;;;;;;;;5090510;28;20077;-77
2021/06/26 05:43:52;;;;;;;10.77;4.28;;;;;;;;;;5091935;28;20099;-77
2021/06/26 05:46:18;;;;;;;7.05;3.72;;;;;;;;;;5090708;28;20825;-75
2021/06/26 05:48:44;;;;;;;17.90;4.82;;;;;;;;;;5091388;28;20462;-78
2021/06/26 05:51:14;;;;;;;11.13;4.50;;;;;;;;;;5092667;28;20028;-75
2021/06/26 05:53:41;;;;;;;10.00;4.18;;;;;;;;;;5091344;28;20025;-68
2021/06/26 05:56:07;;;;;;;16.10;4.70;;;;;;;;;;5092567;28;20461;-70
2021/06/26 05:58:36;;;;;;;10.90;4.15;;;;;;;;;;5091476;28;20031;-66
2021/06/26 06:01:11;;;;;;;10.63;3.70;;;;;;;;;;5091931;28;20036;-76
2021/06/26 06:03:38;;;;;;;8.52;4.10;;;;;;;;;;5088703;28;20016;-66
2021/06/26 06:06:04;;;;;;;9.23;4.28;;;;;;;;;;5091558;28;20051;-69
2021/06/26 06:08:30;;;;;;;9.50;3.75;;;;;;;;;;5090091;28;20024;-74
2021/06/26 06:10:56;;;;;;;11.02;4.65;;;;;;;;;;5086348;28;20424;-74
2021/06/26 06:13:23;;;;;;;12.60;4.38;;;;;;;;;;5091241;28;20024;-77
2021/06/26 06:15:53;;;;;;;15.55;4.32;;;;;;;;;;5093144;28;20055;-89
2021/06/26 06:18:19;;;;;;;9.10;3.67;;;;;;;;;;5091056;28;20032;-77
2021/06/26 06:20:45;;;;;;;9.20;4.10;;;;;;;;;;5091571;28;20159;-69
2021/06/26 06:23:12;;;;;;;11.52;3.92;;;;;;;;;;5090831;28;20032;-71
2021/06/26 06:25:38;;;;;;;7.55;3.70;;;;;;;;;;5090869;28;20032;-73
2021/06/26 06:28:04;;;;;;;11.65;4.15;;;;;;;;;;5088424;28;20031;-72
2021/06/26 06:30:31;;;;;;;8.55;3.78;;;;;;;;;;5089458;28;20020;-70
2021/06/26 06:32:58;;;;;;;14.50;4.10;;;;;;;;;;5087241;28;20027;-71
2021/06/26 06:35:24;;;;;;;7.10;3.97;;;;;;;;;;5090460;28;20042;-67
2021/06/26 06:37:51;;;;;;;7.78;3.53;;;;;;;;;;5090327;28;20056;-66
2021/06/26 06:40:17;;;;;;;9.93;3.67;;;;;;;;;;5089972;28;20106;-81
2021/06/26 06:42:43;;;;;;;10.93;4.05;;;;;;;;;;5090234;28;20028;-85
2021/06/26 06:45:10;;;;;;;8.45;3.78;;;;;;;;;;5090258;28;20073;-75
2021/06/26 06:47:36;;;;;;;11.32;3.97;;;;;;;;;;5090344;28;20032;-74
2021/06/26 06:50:03;;;;;;;8.90;3.83;;;;;;;;;;5085956;28;20481;-78
2021/06/26 06:52:29;;;;;;;18.17;4.50;;;;;;;;;;5090454;28;20040;-71
2021/06/26 06:54:55;;;;;;;12.07;3.72;;;;;;;;;;5089564;28;20024;-70
2021/06/26 06:57:23;;;;;;;6.18;3.75;;;;;;;;;;5085243;28;20123;-72
2021/06/26 06:59:50;;;;;;;7.50;3.55;;;;;;;;;;5090444;28;20012;-66
2021/06/26 07:02:16;;;;;;;9.98;3.90;;;;;;;;;;5088884;28;20026;-70
2021/06/26 07:04:42;;;;;;;9.93;3.90;;;;;;;;;;5090459;28;20024;-89
2021/06/26 07:07:08;;;;;;;12.35;3.80;;;;;;;;;;5090468;28;20072;-76
2021/06/26 07:09:34;;;;;;;15.25;3.90;;;;;;;;;;5094989;28;20055;-76
2021/06/26 07:12:01;;;;;;;8.50;3.53;;;;;;;;;;5090419;28;20032;-77
2021/06/26 07:14:27;;;;;;;6.65;3.55;;;;;;;;;;5091352;28;20540;-84
2021/06/26 07:16:53;;;;;;;10.98;3.75;;;;;;;;;;5089892;28;20115;-94
2021/06/26 07:19:19;;;;;;;8.65;3.92;;;;;;;;;;5090495;28;20055;-80
2021/06/26 07:21:46;;;;;;;15.13;3.97;;;;;;;;;;5090823;28;20024;-70
2021/06/26 07:24:12;;;;;;;12.55;3.88;;;;;;;;;;5087739;28;20594;-66
2021/06/26 07:26:38;;;;;;;9.52;3.58;;;;;;;;;;5090527;28;20020;-69
2021/06/26 07:29:05;;;;;;;15.40;4.00;;;;;;;;;;5089479;28;20032;-68
2021/06/26 07:31:31;;;;;;;13.23;3.60;;;;;;;;;;5082317;28;20020;-67
2021/06/26 07:33:58;;;;;;;12.30;3.72;;;;;;;;;;5090159;28;20081;-69
2021/06/26 07:36:24;;;;;;;12.90;4.20;;;;;;;;;;5090418;28;20143;-68
2021/06/26 07:38:50;;;;;;;10.80;4.38;;;;;;;;;;5089201;28;20028;-69
2021/06/26 07:41:16;;;;;;;11.13;3.53;;;;;;;;;;5090230;28;20036;-66
2021/06/26 07:43:42;;;;;;;13.27;4.07;;;;;;;;;;5093439;28;20024;-69
2021/06/26 07:46:08;;;;;;;10.18;3.65;;;;;;;;;;5088803;28;20357;-69
2021/06/26 07:48:34;;;;;;;6.50;3.22;;;;;;;;;;5089405;28;20020;-65
2021/06/26 07:51:01;;;;;;;9.98;3.30;;;;;;;;;;5089535;28;20456;-67
2021/06/26 07:53:27;;;;;;;12.18;4.25;;;;;;;;;;5089908;28;20103;-65
2021/06/26 07:55:53;;;;;;;10.00;3.60;;;;;;;;;;5089869;28;20024;-66
2021/06/26 07:58:26;;;;;;;9.85;3.67;;;;;;;;;;5091286;28;20069;-68
2021/06/26 08:00:53;;;;;;;11.57;3.50;;;;;;;;;;5084183;28;20046;-67
2021/06/26 08:03:20;;;;;;;9.52;3.80;;;;;;;;;;5090909;28;20478;-67
2021/06/26 08:05:47;;;;;;;9.65;3.42;;;;;;;;;;5089141;28;20769;-67
2021/06/26 08:08:13;;;;;;;8.38;3.65;;;;;;;;;;5090452;28;20024;-65
2021/06/26 08:10:39;;;;;;;8.73;3.30;;;;;;;;;;5090383;28;20413;-69
2021/06/26 08:13:06;;;;;;;7.32;3.15;;;;;;;;;;5089935;28;20035;-68
2021/06/26 08:15:36;;;;;;;12.02;3.30;;;;;;;;;;5090579;28;20028;-67
2021/06/26 08:18:02;;;;;;;13.25;3.38;;;;;;;;;;5088918;28;20492;-66
2021/06/26 08:20:28;;;;;;;13.15;3.58;;;;;;;;;;5090528;28;20036;-69
2021/06/26 08:22:55;;;;;;;6.88;3.22;;;;;;;;;;5096803;28;20020;-69
2021/06/26 08:25:21;;;;;;;10.93;3.40;;;;;;;;;;5093374;28;20043;-66
2021/06/26 08:27:47;;;;;;;8.77;3.60;;;;;;;;;;5092928;28;20034;-66
2021/06/26 08:30:14;;;;;;;11.27;3.17;;;;;;;;;;5092917;28;20020;-68
2021/06/26 08:32:42;;;;;;;12.50;3.70;;;;;;;;;;5091005;28;20036;-67
2021/06/26 08:35:08;;;;;;;9.85;3.58;;;;;;;;;;5094836;28;20148;-69
2021/06/26 08:37:34;;;;;;;10.10;3.53;;;;;;;;;;5094547;28;20039;-69
2021/06/26 08:40:01;;;;;;;9.48;5.00;;;;;;;;;;5089020;28;20354;-68
2021/06/26 08:42:27;;;;;;;10.57;3.50;;;;;;;;;;5091572;28;20100;-69
2021/06/26 08:45:00;;;;;;;13.25;3.42;;;;;;;;;;5093641;28;20381;-70
2021/06/26 08:47:27;;;;;;;9.63;3.40;;;;;;;;;;5088568;28;20032;-72
2021/06/26 08:49:53;;;;;;;10.25;3.33;;;;;;;;;;5092221;28;20478;-71
2021/06/26 08:52:19;;;;;;;8.73;3.30;;;;;;;;;;5091955;28;20043;-70
2021/06/26 08:54:49;;;;;;;8.82;3.55;;;;;;;;;;5089141;28;20024;-70
2021/06/26 08:57:25;;;;;;;10.38;3.65;;;;;;;;;;5092698;28;20036;-71
2021/06/26 08:59:51;;;;;;;10.07;3.20;;;;;;;;;;5092293;28;20019;-69
2021/06/26 09:02:23;;;;;;;11.45;3.55;;;;;;;;;;5094138;28;20131;-69
2021/06/26 09:04:49;;;;;;;9.37;3.47;;;;;;;;;;5090903;28;20032;-69
2021/06/26 09:07:15;;;;;;;8.70;3.13;;;;;;;;;;5090588;28;20019;-69
2021/06/26 09:09:41;;;;;;;9.13;3.45;;;;;;;;;;5091515;28;20027;-67
2021/06/26 09:12:09;;;;;;;8.15;3.50;;;;;;;;;;5088947;28;20490;-69
2021/06/26 09:14:35;;;;;;;11.07;3.33;;;;;;;;;;5093772;28;20039;-70
2021/06/26 09:17:01;;;;;;;9.35;3.35;;;;;;;;;;5091987;28;20035;-72
2021/06/26 09:19:29;;;;;;;11.50;3.25;;;;;;;;;;5084874;28;20024;-72
2021/06/26 09:22:06;;;;;;;11.15;3.17;;;;;;;;;;5093641;28;20415;-72
2021/06/26 09:24:43;;;;;;;10.35;3.20;;;;;;;;;;5090677;28;20194;-69
2021/06/26 09:27:10;;;;;;;9.27;3.80;;;;;;;;;;5093103;28;20024;-65
2021/06/26 09:29:37;;;;;;;9.48;3.50;;;;;;;;;;5092385;28;20023;-67
2021/06/26 09:32:06;;;;;;;10.32;3.67;;;;;;;;;;5093810;28;20377;-72
2021/06/26 09:34:51;;;;;;;12.40;3.50;;;;;;;;;;5090859;28;20093;-65
2021/06/26 09:37:27;;;;;;;6.15;3.40;;;;;;;;;;5087012;28;20051;-73
2021/06/26 09:39:57;;;;;;;11.75;3.28;;;;;;;;;;5087123;28;20026;-73
2021/06/26 09:42:31;;;;;;;10.38;4.03;;;;;;;;;;5090717;28;20031;-64
2021/06/26 09:44:58;;;;;;;16.17;3.60;;;;;;;;;;5090769;28;20028;-73
2021/06/26 09:47:44;;;;;;;12.07;3.50;;;;;;;;;;5089836;28;20362;-66
2021/06/26 09:50:13;;;;;;;12.68;3.78;;;;;;;;;;5091685;28;20114;-75
2021/06/26 09:52:40;;;;;;;11.88;3.80;;;;;;;;;;5092452;28;20055;-72
2021/06/26 09:55:17;;;;;;;12.52;3.70;;;;;;;;;;5092254;28;20122;-64
2021/06/26 09:57:43;;;;;;;10.13;3.65;;;;;;;;;;5093042;28;20032;-69
2021/06/26 10:00:10;;;;;;;11.32;3.60;;;;;;;;;;5093150;28;20073;-68
2021/06/26 10:02:36;;;;;;;13.32;2.97;;;;;;;;;;5092218;28;20016;-67
2021/06/26 10:05:02;;;;;;;12.30;3.63;;;;;;;;;;5088307;28;20042;-67
2021/06/26 10:07:32;;;;;;;11.48;3.30;;;;;;;;;;5086808;28;20489;-69
2021/06/26 10:09:58;;;;;;;13.32;3.70;;;;;;;;;;5091974;28;20840;-64
2021/06/26 10:12:24;;;;;;;8.90;4.10;;;;;;;;;;5092586;28;20055;-65
2021/06/26 10:14:51;;;;;;;12.88;4.03;;;;;;;;;;5092432;28;20539;-70
2021/06/26 10:17:17;;;;;;;9.88;3.80;;;;;;;;;;5093277;28;20048;-69
2021/06/26 10:19:43;;;;;;;10.45;4.07;;;;;;;;;;5092745;28;20052;-79
2021/06/26 10:22:09;;;;;;;10.82;3.97;;;;;;;;;;5090046;28;20069;-70
2021/06/26 10:24:36;;;;;;;9.70;4.03;;;;;;;;;;5092907;28;20020;-64
2021/06/26 10:27:02;;;;;;;7.95;3.35;;;;;;;;;;5090522;28;20043;-66
2021/06/26 10:29:29;;;;;;;9.68;4.00;;;;;;;;;;5091391;28;20020;-69
2021/06/26 10:31:56;;;;;;;11.85;3.92;;;;;;;;;;5090398;28;20024;-63
2021/06/26 10:34:23;;;;;;;13.38;3.72;;;;;;;;;;5090328;28;20035;-64
2021/06/26 10:36:56;;;;;;;12.93;4.20;;;;;;;;;;5091553;28;20032;-64
2021/06/26 10:39:22;;;;;;;10.05;3.80;;;;;;;;;;5090499;28;20465;-70
2021/06/26 10:42:08;;;;;;;21.33;4.60;;;;;;;;;;5091993;28;20081;-69
2021/06/26 10:44:51;;;;;;;13.20;3.90;;;;;;;;;;5091676;28;20024;-64
2021/06/26 10:47:19;;;;;;;10.80;4.10;;;;;;;;;;5091653;28;20127;-64
2021/06/26 10:49:47;;;;;;;11.70;4.50;;;;;;;;;;5091620;28;20024;-65
2021/06/26 10:52:15;;;;;;;6.57;3.67;;;;;;;;;;5092553;28;20059;-68
2021/06/26 10:54:51;;;;;;;17.27;4.25;;;;;;;;;;5091736;28;20066;-67
2021/06/26 10:57:17;;;;;;;14.18;4.15;;;;;;;;;;5084781;28;20047;-70
2021/06/26 10:59:53;;;;;;;9.60;4.20;;;;;;;;;;5092362;28;20023;-64
2021/06/26 11:02:19;;;;;;;10.35;3.97;;;;;;;;;;5090921;28;20550;-70
2021/06/26 11:04:46;;;;;;;9.68;4.07;;;;;;;;;;5090835;28;20123;-69
2021/06/26 11:07:12;;;;;;;15.43;4.38;;;;;;;;;;5091799;28;20090;-76
2021/06/26 11:09:39;;;;;;;10.25;4.03;;;;;;;;;;5091660;28;20027;-73
2021/06/26 11:12:12;;;;;;;8.25;3.78;;;;;;;;;;5091436;28;20028;-75
2021/06/26 11:14:47;;;;;;;8.27;3.97;;;;;;;;;;5088823;28;20029;-71
2021/06/26 11:17:14;;;;;;;9.15;3.95;;;;;;;;;;5090163;28;20088;-70
2021/06/26 11:19:40;;;;;;;8.75;3.55;;;;;;;;;;5090287;28;20060;-70
2021/06/26 11:22:07;;;;;;;10.82;3.90;;;;;;;;;;5088059;28;20035;-71
2021/06/26 11:24:40;;;;;;;9.38;4.10;;;;;;;;;;5082259;28;20032;-69
2021/06/26 11:27:07;;;;;;;13.15;4.10;;;;;;;;;;5090118;28;20065;-69
2021/06/26 11:29:37;;;;;;;15.60;4.00;;;;;;;;;;5090397;28;20473;-73
2021/06/26 11:32:05;;;;;;;11.88;4.45;;;;;;;;;;5090686;28;20101;-69
2021/06/26 11:34:31;;;;;;;14.50;4.90;;;;;;;;;;5088953;28;20500;-68
2021/06/26 11:36:57;;;;;;;12.23;4.72;;;;;;;;;;5092399;28;20044;-68
2021/06/26 11:39:24;;;;;;;11.00;4.35;;;;;;;;;;5091676;28;20031;-67
2021/06/26 11:41:50;;;;;;;7.47;4.32;;;;;;;;;;5089716;28;20024;-66
2021/06/26 11:44:16;;;;;;;8.88;4.20;;;;;;;;;;5086232;28;20016;-68
2021/06/26 11:46:42;;;;;;;8.88;4.45;;;;;;;;;;5086886;28;20027;-66
2021/06/26 11:49:08;;;;;;;8.75;4.57;;;;;;;;;;5087910;28;20023;-69
2021/06/26 11:51:35;;;;;;;11.60;4.40;;;;;;;;;;5085957;28;20024;-63
2021/06/26 11:54:01;;;;;;;9.05;4.30;;;;;;;;;;5081737;28;20803;-67
2021/06/26 11:56:27;;;;;;;12.77;4.25;;;;;;;;;;5090454;28;20043;-68
2021/06/26 11:58:55;;;;;;;12.30;4.30;;;;;;;;;;5085411;28;20108;-65
2021/06/26 12:01:25;;;;;;;7.18;4.32;;;;;;;;;;5090513;28;20539;-61
2021/06/26 12:03:52;;;;;;;9.45;4.32;;;;;;;;;;5086865;28;20367;-62
2021/06/26 12:06:19;;;;;;;8.55;4.18;;;;;;;;;;5091648;28;20063;-69
2021/06/26 12:08:46;;;;;;;8.35;4.00;;;;;;;;;;5085820;28;20024;-67
2021/06/26 12:11:16;;;;;;;9.55;4.65;;;;;;;;;;5086804;28;20427;-67
2021/06/26 12:13:43;;;;;;;10.35;4.57;;;;;;;;;;5090881;28;20537;-66
2021/06/26 12:16:13;;;;;;;18.95;5.63;;;;;;;;;;5080950;28;20403;-67
2021/06/26 12:18:52;;;;;;;7.70;4.15;;;;;;;;;;5076332;28;20047;-65
2021/06/26 12:21:19;;;;;;;8.82;4.13;;;;;;;;;;5074543;28;20032;-67
2021/06/26 12:23:49;;;;;;;8.05;3.90;;;;;;;;;;5087810;28;20016;-65
2021/06/26 12:26:18;;;;;;;9.70;4.22;;;;;;;;;;5090850;28;21470;-67
2021/06/26 12:28:44;;;;;;;10.52;4.60;;;;;;;;;;5087981;28;20032;-68
2021/06/26 12:31:10;;;;;;;8.82;4.20;;;;;;;;;;5089415;28;20144;-69
2021/06/26 12:33:36;;;;;;;11.27;4.13;;;;;;;;;;5090985;28;20026;-66
2021/06/26 12:36:19;;;;;;;8.38;3.80;;;;;;;;;;5100106;28;20051;-69
2021/06/26 12:38:45;;;;;;;5.20;3.50;;;;;;;;;;5091640;28;20346;-62
2021/06/26 12:41:18;;;;;;;10.23;4.18;;;;;;;;;;5091681;28;20020;-70
2021/06/26 12:43:44;;;;;;;;;;;;;;;;;;5090847;28;20074;-64
2021/06/26 12:46:10;;;;;;;7.10;3.78;;;;;;;;;;5082773;28;19916;-67
2021/06/26 12:48:48;;;;;;;10.93;3.70;;;;;;;;;;5091446;28;20032;-69
2021/06/26 12:51:19;;;;;;;7.03;3.55;;;;;;;;;;5091571;28;20036;-63
2021/06/26 12:53:47;;;;;;;8.85;3.95;;;;;;;;;;5090775;28;20026;-63
2021/06/26 12:56:18;;;;;;;8.07;3.63;;;;;;;;;;5090816;28;20039;-69
2021/06/26 12:58:54;;;;;;;9.35;3.95;;;;;;;;;;5076499;28;20020;-63
2021/06/26 13:01:21;;;;;;;6.97;3.83;;;;;;;;;;5086072;28;20024;-70
2021/06/26 13:03:56;;;;;;;8.75;3.83;;;;;;;;;;5094182;28;20044;-67
2021/06/26 13:06:23;;;;;;;8.60;3.60;;;;;;;;;;5094298;28;20044;-66
2021/06/26 13:08:53;;;;;;;6.07;3.38;;;;;;;;;;5094897;28;20016;-69
2021/06/26 13:11:29;;;;;;;6.07;3.42;;;;;;;;;;5095151;28;20028;-69
2021/06/26 13:13:55;;;;;;;8.00;3.35;;;;;;;;;;5093941;28;20115;-69
2021/06/26 13:16:21;;;;;;;6.25;3.00;;;;;;;;;;5093743;28;20043;-67
2021/06/26 13:18:47;;;;;;;5.80;3.13;;;;;;;;;;5091344;28;20009;-69
2021/06/26 13:21:13;;;;;;;8.30;3.25;;;;;;;;;;5087257;28;20024;-69
2021/06/26 13:23:41;;;;;;;9.02;3.38;;;;;;;;;;5094643;28;20016;-67
2021/06/26 13:26:07;;;;;;;7.65;3.25;;;;;;;;;;5088708;28;20020;-69
2021/06/26 13:28:33;;;;;;;6.88;3.60;;;;;;;;;;5095517;28;20027;-70
2021/06/26 13:30:59;;;;;;;8.00;3.72;;;;;;;;;;5082978;28;20042;-67
2021/06/26 13:33:25;;;;;;;12.57;3.67;;;;;;;;;;5094546;28;20016;-69
2021/06/26 13:35:52;;;;;;;10.90;3.33;;;;;;;;;;5093792;28;20473;-69
2021/06/26 13:38:18;;;;;;;6.72;3.30;;;;;;;;;;5094828;28;20024;-69
2021/06/26 13:40:49;;;;;;;7.78;3.25;;;;;;;;;;5079631;28;20584;-69
2021/06/26 13:43:16;;;;;;;5.50;2.72;;;;;;;;;;5080577;28;20115;-69
2021/06/26 13:45:42;;;;;;;4.65;2.88;;;;;;;;;;5088951;28;20029;-70
2021/06/26 13:48:08;;;;;;;10.85;3.30;;;;;;;;;;5090303;28;20107;-70
2021/06/26 13:50:34;;;;;;;3.85;2.72;;;;;;;;;;5091028;28;20028;-67
2021/06/26 13:53:00;;;;;;;5.68;3.03;;;;;;;;;;5090208;28;20477;-63
2021/06/26 13:55:26;;;;;;;4.97;2.97;;;;;;;;;;5083053;28;20418;-63
2021/06/26 13:57:52;;;;;;;5.80;2.70;;;;;;;;;;5088046;28;20024;-70
2021/06/26 14:00:19;;;;;;;4.93;2.75;;;;;;;;;;5094340;28;20039;-69
2021/06/26 14:02:45;;;;;;;6.93;2.88;;;;;;;;;;5093931;28;20016;-69
2021/06/26 14:05:12;;;;;;;7.50;3.10;;;;;;;;;;5093656;28;20566;-69
2021/06/26 14:07:38;;;;;;;10.57;3.28;;;;;;;;;;5088410;28;20141;-68
2021/06/26 14:10:05;;;;;;;11.20;2.95;;;;;;;;;;5093735;28;20032;-69
2021/06/26 14:12:31;;;;;;;6.82;2.78;;;;;;;;;;5089732;28;20036;-70
2021/06/26 14:14:57;;;;;;;5.10;2.50;;;;;;;;;;5093835;28;20016;-62
2021/06/26 14:17:23;;;;;;;4.47;2.65;;;;;;;;;;5093447;28;20070;-62
2021/06/26 14:19:50;;;;;;;5.10;2.67;;;;;;;;;;5093518;28;20055;-63
2021/06/26 14:22:16;;;;;;;5.32;2.78;;;;;;;;;;5093666;28;20024;-69
2021/06/26 14:24:42;;;;;;;7.13;3.00;;;;;;;;;;5093394;28;20024;-69
2021/06/26 14:27:08;;;;;;;8.52;3.95;;;;;;;;;;5093718;28;20020;-65
2021/06/26 14:29:35;;;;;;;6.30;3.28;;;;;;;;;;5092328;28;20020;-69
2021/06/26 14:32:01;;;;;;;5.95;2.67;;;;;;;;;;5093824;28;20382;-68
2021/06/26 14:34:27;;;;;;;4.07;2.70;;;;;;;;;;5085886;28;20035;-69
2021/06/26 14:36:53;;;;;;;6.45;2.92;;;;;;;;;;5092512;28;20035;-65
2021/06/26 14:39:19;;;;;;;8.15;2.70;;;;;;;;;;5092903;28;20024;-62
2021/06/26 14:41:45;;;;;;;6.55;2.58;;;;;;;;;;5093354;28;20096;-70